createdAt,value
2023-09-02T00:00:02.803Z,0
2023-09-02T00:01:03.814Z,0
2023-09-02T00:02:04.896Z,0
2023-09-02T00:03:05.031Z,0
2023-09-02T00:04:05.145Z,0
2023-09-02T00:05:05.938Z,0
2023-09-02T00:06:06.679Z,0
2023-09-02T00:07:07.220Z,0
2023-09-02T00:08:07.950Z,0
2023-09-02T00:09:09.066Z,0
2023-09-02T00:10:09.450Z,0
2023-09-02T00:11:10.167Z,0
2023-09-02T00:12:10.861Z,0
2023-09-02T00:13:11.153Z,0
2023-09-02T00:14:11.985Z,0
2023-09-02T00:15:12.911Z,0
2023-09-02T00:16:13.466Z,0
2023-09-02T00:17:14.628Z,0
2023-09-02T00:18:15.185Z,0
2023-09-02T00:19:16.130Z,0
2023-09-02T00:20:16.757Z,0
2023-09-02T00:21:17.473Z,0
2023-09-02T00:22:18.595Z,0
2023-09-02T00:23:18.488Z,0
2023-09-02T00:24:19.369Z,0
2023-09-02T00:25:20.084Z,0
2023-09-02T00:26:20.612Z,0
2023-09-02T00:27:21.373Z,0
2023-09-02T00:28:22.078Z,0
2023-09-02T00:29:22.586Z,0
2023-09-02T00:30:23.025Z,0
2023-09-02T00:31:23.902Z,0
2023-09-02T00:32:24.470Z,0
2023-09-02T00:33:25.280Z,0
2023-09-02T00:34:24.827Z,0
2023-09-02T00:35:25.540Z,0
2023-09-02T00:36:26.098Z,0
2023-09-02T00:37:26.838Z,0
2023-09-02T00:38:27.334Z,0
2023-09-02T00:39:27.661Z,0
2023-09-02T00:40:28.095Z,0
2023-09-02T00:41:29.009Z,0
2023-09-02T00:42:29.765Z,0
2023-09-02T00:43:30.039Z,0
2023-09-02T00:44:30.551Z,0
2023-09-02T00:45:31.460Z,0
2023-09-02T00:46:31.665Z,0
2023-09-02T00:47:32.606Z,0
2023-09-02T00:48:32.218Z,0
2023-09-02T00:49:32.768Z,0
2023-09-02T00:50:34.391Z,0
2023-09-02T00:51:34.084Z,0
2023-09-02T00:52:34.804Z,0
2023-09-02T00:53:35.489Z,0
2023-09-02T00:54:36.648Z,0
2023-09-02T00:55:37.172Z,0
2023-09-02T00:56:37.888Z,0
2023-09-02T00:57:38.402Z,0
2023-09-02T00:58:39.321Z,0
2023-09-02T00:59:39.633Z,0
2023-09-02T01:00:40.877Z,0
2023-09-02T01:01:41.635Z,0
2023-09-02T01:02:42.393Z,0
2023-09-02T01:03:42.862Z,0
2023-09-02T01:04:42.757Z,0
2023-09-02T01:05:43.045Z,0
2023-09-02T01:06:44.756Z,0
2023-09-02T01:07:45.481Z,0
2023-09-02T01:08:46.031Z,0
2023-09-02T01:09:46.813Z,0
2023-09-02T01:10:47.390Z,0
2023-09-02T01:11:47.887Z,0
2023-09-02T01:12:48.419Z,0
2023-09-02T01:13:49.456Z,0
2023-09-02T01:14:50.018Z,0
2023-09-02T01:15:50.929Z,0
2023-09-02T01:16:52.148Z,0
2023-09-02T01:17:52.438Z,0
2023-09-02T01:18:52.195Z,0
2023-09-02T01:19:52.930Z,0
2023-09-02T01:20:53.605Z,0
2023-09-02T01:21:54.317Z,0
2023-09-02T01:22:55.276Z,0
2023-09-02T01:23:55.756Z,0
2023-09-02T01:24:56.417Z,0
2023-09-02T01:25:56.523Z,0
2023-09-02T01:26:57.017Z,0
2023-09-02T01:27:57.965Z,0
2023-09-02T01:28:58.674Z,0
2023-09-02T01:29:59.402Z,0
2023-09-02T01:30:59.996Z,0
2023-09-02T01:32:00.205Z,0
2023-09-02T01:33:01.510Z,0
2023-09-02T01:34:01.371Z,0
2023-09-02T01:35:02.097Z,0
2023-09-02T01:36:02.828Z,0
2023-09-02T01:37:03.171Z,0
2023-09-02T01:38:03.907Z,0
2023-09-02T01:39:04.652Z,0
2023-09-02T01:40:05.153Z,0
2023-09-02T01:41:05.795Z,0
2023-09-02T01:42:06.521Z,0
2023-09-02T01:43:07.130Z,0
2023-09-02T01:44:07.527Z,0
2023-09-02T01:45:08.265Z,0
2023-09-02T01:46:09.078Z,0
2023-09-02T01:47:08.906Z,0
2023-09-02T01:48:10.266Z,0
2023-09-02T01:49:10.212Z,0
2023-09-02T01:50:11.301Z,0
2023-09-02T01:51:11.953Z,0
2023-09-02T01:52:12.872Z,0
2023-09-02T01:53:13.582Z,0
2023-09-02T01:54:13.756Z,0
2023-09-02T01:55:14.997Z,0
2023-09-02T01:56:15.000Z,0
2023-09-02T01:57:15.711Z,0
2023-09-02T01:58:16.268Z,0
2023-09-02T01:59:17.000Z,0
2023-09-02T02:00:17.094Z,0
2023-09-02T02:01:18.192Z,0
2023-09-02T02:02:18.819Z,0
2023-09-02T02:03:20.595Z,0
2023-09-02T02:04:19.757Z,0
2023-09-02T02:05:20.529Z,0
2023-09-02T02:06:21.087Z,0
2023-09-02T02:07:22.016Z,0
2023-09-02T02:08:22.174Z,0
2023-09-02T02:09:22.661Z,0
2023-09-02T02:10:23.191Z,0
2023-09-02T02:11:24.231Z,0
2023-09-02T02:12:24.956Z,0
2023-09-02T02:13:26.254Z,0
2023-09-02T02:14:26.067Z,0
2023-09-02T02:15:27.228Z,0
2023-09-02T02:16:28.077Z,0
2023-09-02T02:17:28.689Z,0
2023-09-02T02:18:29.648Z,0
2023-09-02T02:19:29.642Z,0
2023-09-02T02:20:30.386Z,0
2023-09-02T02:21:31.206Z,0
2023-09-02T02:22:31.549Z,0
2023-09-02T02:25:33.434Z,0
2023-09-02T02:26:33.932Z,0
2023-09-02T02:27:34.849Z,0
2023-09-02T02:28:35.025Z,0
2023-09-02T02:29:34.955Z,0
2023-09-02T02:30:35.459Z,0
2023-09-02T02:31:36.271Z,0
2023-09-02T02:32:37.208Z,0
2023-09-02T02:33:37.336Z,0
2023-09-02T02:34:37.230Z,0
2023-09-02T02:35:38.001Z,0
2023-09-02T02:36:38.725Z,0
2023-09-02T02:37:39.406Z,0
2023-09-02T02:38:39.928Z,0
2023-09-02T02:39:40.629Z,0
2023-09-02T02:40:41.121Z,0
2023-09-02T02:41:41.767Z,0
2023-09-02T02:42:41.827Z,0
2023-09-02T02:43:42.546Z,0
2023-09-02T02:44:43.081Z,0
2023-09-02T02:45:44.084Z,0
2023-09-02T02:46:44.704Z,0
2023-09-02T02:47:45.708Z,0
2023-09-02T02:48:45.794Z,0
2023-09-02T02:49:46.126Z,0
2023-09-02T02:50:47.335Z,0
2023-09-02T02:51:47.987Z,0
2023-09-02T02:52:48.523Z,0
2023-09-02T02:53:49.054Z,0
2023-09-02T02:54:49.949Z,0
2023-09-02T02:55:50.527Z,0
2023-09-02T02:56:51.534Z,0
2023-09-02T02:57:51.660Z,0
2023-09-02T02:58:52.392Z,0
2023-09-02T02:59:52.324Z,0
2023-09-02T03:00:52.827Z,0
2023-09-02T03:01:53.531Z,0
2023-09-02T03:02:54.138Z,0
2023-09-02T03:03:54.528Z,0
2023-09-02T03:04:54.637Z,0
2023-09-02T03:05:55.251Z,0
2023-09-02T03:06:56.156Z,0
2023-09-02T03:07:56.648Z,0
2023-09-02T03:08:57.355Z,0
2023-09-02T03:09:58.057Z,0
2023-09-02T03:10:58.753Z,0
2023-09-02T03:11:58.999Z,0
2023-09-02T03:12:59.899Z,0
2023-09-02T03:14:00.838Z,0
2023-09-02T03:15:00.982Z,0
2023-09-02T03:16:02.038Z,0
2023-09-02T03:17:02.007Z,0
2023-09-02T03:18:02.791Z,0
2023-09-02T04:01:33.702Z,0
2023-09-02T04:03:30.560Z,0
2023-09-02T04:04:30.650Z,0
2023-09-02T04:05:31.585Z,0
2023-09-02T04:06:32.285Z,0
2023-09-02T04:07:33.045Z,0
2023-09-02T04:08:33.736Z,0
2023-09-02T04:09:34.227Z,0
2023-09-02T04:10:35.070Z,0
2023-09-02T04:11:35.784Z,0
2023-09-02T04:12:36.550Z,0
2023-09-02T04:13:36.620Z,4
2023-09-02T04:14:37.391Z,4
2023-09-02T04:15:37.878Z,0
2023-09-02T04:16:38.776Z,0
2023-09-02T04:17:40.900Z,4
2023-09-02T04:18:40.754Z,0
2023-09-02T04:19:40.778Z,4
2023-09-02T04:20:41.648Z,0
2023-09-02T04:21:41.953Z,4
2023-09-02T04:22:42.730Z,4
2023-09-02T04:23:43.629Z,4
2023-09-02T04:24:44.306Z,4
2023-09-02T04:25:44.786Z,8
2023-09-02T04:26:45.495Z,8
2023-09-02T04:27:46.226Z,8
2023-09-02T04:28:46.729Z,12
2023-09-02T04:29:47.450Z,12
2023-09-02T04:30:48.570Z,12
2023-09-02T04:31:48.529Z,16
2023-09-02T04:32:49.670Z,20
2023-09-02T04:33:49.428Z,20
2023-09-02T04:34:49.536Z,20
2023-09-02T04:35:50.038Z,24
2023-09-02T04:36:50.753Z,24
2023-09-02T04:37:51.374Z,28
2023-09-02T04:38:51.859Z,32
2023-09-02T04:39:52.529Z,36
2023-09-02T04:40:53.637Z,40
2023-09-02T04:41:54.344Z,40
2023-09-02T04:42:54.924Z,44
2023-09-02T04:43:56.153Z,48
2023-09-02T04:44:56.684Z,52
2023-09-02T04:45:57.320Z,56
2023-09-02T04:46:57.982Z,56
2023-09-02T04:47:59.334Z,60
2023-09-02T04:48:59.651Z,64
2023-09-02T04:49:59.431Z,68
2023-09-02T04:50:59.934Z,72
2023-09-02T04:52:00.764Z,72
2023-09-02T04:53:01.225Z,80
2023-09-02T04:54:02.112Z,80
2023-09-02T04:55:02.471Z,84
2023-09-02T04:56:02.789Z,92
2023-09-02T04:57:03.728Z,96
2023-09-02T04:58:04.722Z,96
2023-09-02T04:59:05.247Z,100
2023-09-02T05:00:05.762Z,104
2023-09-02T05:01:06.472Z,108
2023-09-02T05:02:06.728Z,112
2023-09-02T05:03:07.284Z,112
2023-09-02T05:04:07.073Z,120
2023-09-02T05:05:07.407Z,120
2023-09-02T05:06:08.371Z,128
2023-09-02T05:07:08.195Z,128
2023-09-02T05:08:09.335Z,132
2023-09-02T05:09:09.472Z,140
2023-09-02T05:10:09.579Z,144
2023-09-02T05:11:09.330Z,144
2023-09-02T05:12:10.251Z,148
2023-09-02T05:13:10.505Z,148
2023-09-02T05:14:11.333Z,156
2023-09-02T05:15:12.277Z,160
2023-09-02T05:16:12.398Z,164
2023-09-02T05:17:12.245Z,164
2023-09-02T05:18:13.695Z,168
2023-09-02T05:19:13.212Z,176
2023-09-02T05:20:14.261Z,180
2023-09-02T05:21:14.757Z,176
2023-09-02T05:22:15.702Z,188
2023-09-02T05:23:16.144Z,196
2023-09-02T05:24:16.256Z,204
2023-09-02T05:25:16.743Z,212
2023-09-02T05:26:17.680Z,216
2023-09-02T05:27:18.404Z,232
2023-09-02T05:28:19.148Z,236
2023-09-02T05:29:19.711Z,240
2023-09-02T05:30:20.640Z,244
2023-09-02T05:31:21.686Z,252
2023-09-02T05:32:21.530Z,260
2023-09-02T05:33:23.472Z,276
2023-09-02T05:34:23.581Z,280
2023-09-02T05:35:23.142Z,284
2023-09-02T05:36:23.677Z,300
2023-09-02T05:37:24.398Z,316
2023-09-02T05:38:25.115Z,324
2023-09-02T05:39:26.024Z,332
2023-09-02T05:40:27.987Z,328
2023-09-02T05:41:27.085Z,344
2023-09-02T05:42:27.573Z,352
2023-09-02T05:43:28.232Z,360
2023-09-02T05:44:27.743Z,364
2023-09-02T05:45:28.654Z,368
2023-09-02T05:46:29.590Z,368
2023-09-02T05:47:30.787Z,372
2023-09-02T05:48:31.022Z,384
2023-09-02T05:49:30.532Z,384
2023-09-02T05:50:31.449Z,388
2023-09-02T05:51:32.137Z,400
2023-09-02T05:52:32.639Z,404
2023-09-02T05:53:33.458Z,412
2023-09-02T05:54:33.393Z,420
2023-09-02T05:55:34.156Z,432
2023-09-02T05:56:34.865Z,436
2023-09-02T05:57:35.576Z,444
2023-09-02T05:58:35.700Z,456
2023-09-02T05:59:36.625Z,464
2023-09-02T06:00:37.547Z,468
2023-09-02T06:01:37.712Z,480
2023-09-02T06:02:38.794Z,484
2023-09-02T06:03:39.592Z,488
2023-09-02T06:04:39.399Z,500
2023-09-02T06:05:40.344Z,504
2023-09-02T06:06:43.436Z,516
2023-09-02T06:07:41.690Z,516
2023-09-02T06:08:42.626Z,512
2023-09-02T06:09:43.321Z,524
2023-09-02T06:10:44.053Z,544
2023-09-02T06:11:44.919Z,552
2023-09-02T06:12:45.954Z,560
2023-09-02T06:13:46.624Z,564
2023-09-02T06:14:47.326Z,572
2023-09-02T06:15:47.940Z,580
2023-09-02T06:16:47.694Z,592
2023-09-02T06:17:48.566Z,600
2023-09-02T06:18:48.959Z,608
2023-09-02T06:19:49.644Z,620
2023-09-02T06:20:50.162Z,628
2023-09-02T06:21:50.664Z,644
2023-09-02T06:22:51.388Z,652
2023-09-02T06:23:52.002Z,644
2023-09-02T06:24:52.982Z,668
2023-09-02T06:25:53.263Z,696
2023-09-02T06:26:53.954Z,860
2023-09-02T06:27:55.090Z,1492
2023-09-02T06:28:55.614Z,2488
2023-09-02T06:29:56.628Z,3992
2023-09-02T06:30:57.472Z,4996
2023-09-02T06:31:58.446Z,5520
2023-09-02T06:32:59.018Z,5512
2023-09-02T06:33:59.922Z,4892
2023-09-02T06:35:00.528Z,4516
2023-09-02T06:36:01.232Z,4872
2023-09-02T06:37:01.721Z,4108
2023-09-02T06:38:02.713Z,3492
2023-09-02T06:39:03.420Z,3908
2023-09-02T06:40:04.352Z,3396
2023-09-02T06:41:05.073Z,3112
2023-09-02T06:42:06.058Z,2904
2023-09-02T06:43:06.754Z,2912
2023-09-02T06:44:07.457Z,3140
2023-09-02T06:45:08.174Z,3424
2023-09-02T06:46:08.772Z,2900
2023-09-02T06:47:09.898Z,2624
2023-09-02T06:48:10.811Z,2944
2023-09-02T06:49:12.106Z,2568
2023-09-02T06:50:11.874Z,2400
2023-09-02T06:51:12.831Z,2332
2023-09-02T06:52:13.568Z,2268
2023-09-02T06:53:14.090Z,2264
2023-09-02T06:54:15.049Z,2296
2023-09-02T06:55:15.807Z,2420
2023-09-02T06:56:16.169Z,2584
2023-09-02T06:57:16.706Z,2740
2023-09-02T06:58:17.635Z,3160
2023-09-02T06:59:18.358Z,3540
2023-09-02T07:00:19.091Z,4068
2023-09-02T07:01:20.224Z,4176
2023-09-02T07:02:20.210Z,4156
2023-09-02T07:03:21.227Z,4296
2023-09-02T07:04:22.196Z,4360
2023-09-02T07:05:22.255Z,4284
2023-09-02T07:06:23.205Z,4336
2023-09-02T07:07:23.953Z,4336
2023-09-02T07:08:24.254Z,4332
2023-09-02T07:09:25.247Z,4184
2023-09-02T07:10:25.864Z,3708
2023-09-02T07:11:26.796Z,3580
2023-09-02T07:12:26.535Z,3340
2023-09-02T07:13:27.881Z,3340
2023-09-02T07:14:28.743Z,3348
2023-09-02T07:15:28.466Z,3160
2023-09-02T07:16:29.185Z,3516
2023-09-02T07:17:30.036Z,4096
2023-09-02T07:18:30.868Z,5016
2023-09-02T07:19:32.073Z,4900
2023-09-02T07:20:32.212Z,4740
2023-09-02T07:21:32.800Z,4836
2023-09-02T07:22:33.518Z,4356
2023-09-02T07:23:33.875Z,3932
2023-09-02T07:24:34.778Z,4092
2023-09-02T07:25:35.111Z,3036
2023-09-02T07:26:36.072Z,2876
2023-09-02T07:27:36.826Z,2748
2023-09-02T07:28:37.979Z,3008
2023-09-02T07:29:38.320Z,3036
2023-09-02T07:30:39.037Z,3004
2023-09-02T07:31:40.441Z,3012
2023-09-02T07:32:40.796Z,3192
2023-09-02T07:33:41.683Z,3088
2023-09-02T07:34:42.020Z,3660
2023-09-02T07:35:42.148Z,4076
2023-09-02T07:36:43.070Z,4548
2023-09-02T07:37:43.817Z,4972
2023-09-02T07:38:47.052Z,5164
2023-09-02T07:39:44.587Z,5816
2023-09-02T07:40:45.516Z,5792
2023-09-02T07:41:45.829Z,5464
2023-09-02T07:42:46.758Z,4516
2023-09-02T07:43:46.776Z,3680
2023-09-02T07:44:47.596Z,3092
2023-09-02T07:45:48.404Z,2716
2023-09-02T07:46:49.392Z,2616
2023-09-02T07:47:50.130Z,2568
2023-09-02T07:48:50.897Z,2556
2023-09-02T07:49:52.094Z,2384
2023-09-02T07:50:52.374Z,2116
2023-09-02T07:51:53.282Z,2036
2023-09-02T07:52:54.403Z,2040
2023-09-02T07:53:54.710Z,2028
2023-09-02T07:54:55.503Z,1836
2023-09-02T07:55:56.422Z,1844
2023-09-02T07:56:57.671Z,1740
2023-09-02T07:57:57.994Z,1692
2023-09-02T07:58:58.568Z,1752
2023-09-02T07:59:59.858Z,1844
2023-09-02T08:00:59.998Z,2308
2023-09-02T08:02:00.873Z,2648
2023-09-02T08:03:01.129Z,2864
2023-09-02T08:04:03.879Z,2932
2023-09-02T08:05:02.172Z,3336
2023-09-02T08:06:01.717Z,3312
2023-09-02T08:07:02.641Z,3292
2023-09-02T08:08:03.144Z,2552
2023-09-02T08:09:04.324Z,1836
2023-09-02T08:10:04.706Z,1508
2023-09-02T08:11:05.218Z,1404
2023-09-02T08:12:05.802Z,1344
2023-09-02T08:13:06.904Z,1264
2023-09-02T08:14:07.398Z,1192
2023-09-02T08:15:08.434Z,1164
2023-09-02T08:16:09.664Z,1144
2023-09-02T08:17:09.262Z,1120
2023-09-02T08:18:10.303Z,1104
2023-09-02T08:19:10.077Z,1096
2023-09-02T08:20:11.615Z,1084
2023-09-02T08:21:12.142Z,1076
2023-09-02T08:22:12.679Z,1076
2023-09-02T08:23:13.453Z,1076
2023-09-02T08:24:13.742Z,1052
2023-09-02T08:25:13.704Z,1032
2023-09-02T08:26:14.802Z,1084
2023-09-02T08:27:15.636Z,1164
2023-09-02T08:28:16.752Z,1080
2023-09-02T08:29:17.462Z,1028
2023-09-02T08:30:18.184Z,1056
2023-09-02T08:31:19.034Z,1096
2023-09-02T08:32:19.249Z,1064
2023-09-02T08:33:20.250Z,1020
2023-09-02T08:34:19.915Z,984
2023-09-02T08:35:21.342Z,976
2023-09-02T08:36:21.052Z,980
2023-09-02T08:37:21.917Z,996
2023-09-02T08:38:23.052Z,984
2023-09-02T08:39:23.770Z,972
2023-09-02T08:40:24.287Z,964
2023-09-02T08:41:25.017Z,948
2023-09-02T08:42:27.868Z,940
2023-09-02T08:43:26.956Z,936
2023-09-02T08:44:26.739Z,928
2023-09-02T08:45:27.198Z,920
2023-09-02T08:46:28.088Z,900
2023-09-02T08:47:28.214Z,892
2023-09-02T08:48:32.518Z,884
2023-09-02T08:49:29.251Z,876
2023-09-02T08:50:30.477Z,880
2023-09-02T08:51:31.402Z,876
2023-09-02T08:52:30.939Z,876
2023-09-02T08:53:31.858Z,868
2023-09-02T08:54:32.629Z,868
2023-09-02T08:55:32.986Z,864
2023-09-02T08:56:33.333Z,864
2023-09-02T08:57:34.231Z,868
2023-09-02T08:58:34.448Z,860
2023-09-02T08:59:35.405Z,868
2023-09-02T09:00:36.452Z,876
2023-09-02T09:01:36.501Z,880
2023-09-02T09:02:37.281Z,964
2023-09-02T09:03:38.048Z,1180
2023-09-02T09:04:39.375Z,1056
2023-09-02T09:05:40.097Z,1136
2023-09-02T09:06:42.190Z,2708
2023-09-02T09:07:40.530Z,5864
2023-09-02T09:08:41.099Z,7120
2023-09-02T09:09:42.235Z,7016
2023-09-02T09:10:42.933Z,7024
2023-09-02T09:11:43.626Z,7064
2023-09-02T09:12:44.353Z,7216
2023-09-02T09:13:45.131Z,7032
2023-09-02T09:14:45.649Z,7568
2023-09-02T09:15:46.672Z,7852
2023-09-02T09:16:47.456Z,7984
2023-09-02T09:17:48.526Z,7852
2023-09-02T09:18:49.112Z,7720
2023-09-02T09:19:49.862Z,7812
2023-09-02T09:20:51.234Z,7528
2023-09-02T09:21:51.795Z,8244
2023-09-02T09:22:53.950Z,8952
2023-09-02T09:23:53.092Z,8948
2023-09-02T09:24:53.626Z,9088
2023-09-02T09:25:54.051Z,9916
2023-09-02T09:26:55.165Z,9912
2023-09-02T09:27:55.874Z,10084
2023-09-02T09:28:56.985Z,11168
2023-09-02T09:29:57.299Z,11684
2023-09-02T09:30:58.021Z,12452
2023-09-02T09:31:58.991Z,11996
2023-09-02T09:32:59.719Z,11984
2023-09-02T09:34:00.744Z,12544
2023-09-02T09:35:01.507Z,12460
2023-09-02T09:36:02.651Z,12264
2023-09-02T09:37:03.072Z,12424
2023-09-02T09:38:03.991Z,12220
2023-09-02T09:39:04.734Z,11968
2023-09-02T09:40:05.355Z,11804
2023-09-02T09:41:05.998Z,11280
2023-09-02T09:42:06.927Z,10876
2023-09-02T09:43:09.143Z,10640
2023-09-02T09:44:07.653Z,11060
2023-09-02T09:45:08.439Z,11416
2023-09-02T09:46:10.146Z,11632
2023-09-02T09:47:10.322Z,11224
2023-09-02T09:48:10.141Z,11036
2023-09-02T09:49:11.336Z,11880
2023-09-02T09:50:11.561Z,11980
2023-09-02T09:51:11.786Z,11848
2023-09-02T09:52:12.551Z,12084
2023-09-02T09:53:13.546Z,12400
2023-09-02T09:54:13.678Z,12500
2023-09-02T09:55:17.067Z,12556
2023-09-02T09:56:14.890Z,12496
2023-09-02T09:57:16.026Z,12436
2023-09-02T09:58:15.959Z,12396
2023-09-02T09:59:16.712Z,12348
2023-09-02T10:00:17.623Z,12280
2023-09-02T10:01:20.462Z,10872
2023-09-02T10:02:18.391Z,11944
2023-09-02T10:03:19.927Z,11528
2023-09-02T10:04:19.827Z,12060
2023-09-02T10:05:20.820Z,12032
2023-09-02T10:06:21.002Z,11976
2023-09-02T10:07:23.703Z,11656
2023-09-02T10:08:22.244Z,11548
2023-09-02T10:09:23.007Z,11244
2023-09-02T10:10:23.813Z,11244
2023-09-02T10:11:24.160Z,11172
2023-09-02T10:12:24.941Z,11336
2023-09-02T10:13:26.405Z,11288
2023-09-02T10:14:27.120Z,11248
2023-09-02T10:15:27.829Z,11348
2023-09-02T10:16:28.785Z,11308
2023-09-02T10:17:29.323Z,11476
2023-09-02T10:18:30.129Z,11876
2023-09-02T10:19:31.082Z,11360
2023-09-02T10:20:31.876Z,11936
2023-09-02T10:21:32.092Z,12236
2023-09-02T10:22:34.126Z,12240
2023-09-02T10:23:34.103Z,12268
2023-09-02T10:24:34.417Z,12224
2023-09-02T10:25:35.476Z,12296
2023-09-02T10:26:35.895Z,12280
2023-09-02T10:27:37.016Z,12280
2023-09-02T10:28:38.008Z,12348
2023-09-02T10:29:37.918Z,12376
2023-09-02T10:30:39.910Z,12360
2023-09-02T10:31:39.831Z,12284
2023-09-02T10:32:41.261Z,12228
2023-09-02T10:33:41.859Z,12228
2023-09-02T10:34:42.630Z,12324
2023-09-02T10:35:43.157Z,12292
2023-09-02T10:36:44.299Z,12356
2023-09-02T10:37:44.420Z,12376
2023-09-02T10:38:44.885Z,12368
2023-09-02T10:39:46.101Z,12356
2023-09-02T10:40:46.826Z,12404
2023-09-02T10:41:48.114Z,12404
2023-09-02T10:42:48.770Z,12436
2023-09-02T10:43:49.318Z,12452
2023-09-02T10:44:50.047Z,12464
2023-09-02T10:45:51.302Z,12440
2023-09-02T10:46:54.287Z,12424
2023-09-02T10:47:52.849Z,12392
2023-09-02T10:48:53.429Z,12376
2023-09-02T10:49:54.363Z,12400
2023-09-02T10:50:54.918Z,12436
2023-09-02T10:51:56.192Z,12112
2023-09-02T10:53:33.254Z,12400
2023-09-02T10:53:57.159Z,12144
2023-09-02T10:54:57.632Z,12076
2023-09-02T10:55:58.825Z,12292
2023-09-02T10:58:02.836Z,10680
2023-09-02T10:58:59.602Z,9840
2023-09-02T10:59:59.944Z,9884
2023-09-02T11:01:00.798Z,10244
2023-09-02T11:02:01.935Z,12280
2023-09-02T11:03:02.225Z,12284
2023-09-02T11:04:02.312Z,12224
2023-09-02T11:05:02.876Z,12108
2023-09-02T11:06:03.606Z,12052
2023-09-02T11:07:05.206Z,11996
2023-09-02T11:08:04.880Z,11960
2023-09-02T11:09:05.443Z,12072
2023-09-02T11:10:05.796Z,11952
2023-09-02T11:11:06.532Z,12052
2023-09-02T11:12:07.265Z,11960
2023-09-02T11:13:07.845Z,11920
2023-09-02T11:14:09.202Z,11772
2023-09-02T11:15:09.195Z,11812
2023-09-02T11:16:09.573Z,11676
2023-09-02T11:17:10.190Z,11532
2023-09-02T11:18:11.497Z,11508
2023-09-02T11:19:11.615Z,11420
2023-09-02T11:20:12.342Z,11280
2023-09-02T11:21:12.717Z,11192
2023-09-02T11:22:13.940Z,11140
2023-09-02T11:23:14.666Z,11000
2023-09-02T11:24:15.066Z,10708
2023-09-02T11:25:15.893Z,10740
2023-09-02T11:26:16.539Z,10556
2023-09-02T11:27:16.966Z,10520
2023-09-02T11:28:17.499Z,9940
2023-09-02T11:29:18.206Z,9856
2023-09-02T11:30:19.344Z,9896
2023-09-02T11:31:19.926Z,10036
2023-09-02T11:32:20.371Z,9828
2023-09-02T11:33:22.145Z,9808
2023-09-02T11:34:22.127Z,9820
2023-09-02T11:35:27.652Z,9752
2023-09-02T11:36:23.240Z,9712
2023-09-02T11:37:24.439Z,9664
2023-09-02T11:38:25.404Z,9600
2023-09-02T11:39:26.156Z,9512
2023-09-02T11:40:26.532Z,9424
2023-09-02T11:41:32.566Z,9312
2023-09-02T11:42:27.498Z,9280
2023-09-02T11:43:28.590Z,9224
2023-09-02T11:44:28.693Z,9128
2023-09-02T11:45:29.315Z,8968
2023-09-02T11:46:30.059Z,8916
2023-09-02T11:47:31.192Z,8764
2023-09-02T11:48:31.841Z,8624
2023-09-02T11:49:32.586Z,8764
2023-09-02T11:50:33.367Z,8704
2023-09-02T11:51:34.251Z,8652
2023-09-02T11:52:34.621Z,8664
2023-09-02T11:53:35.171Z,8676
2023-09-02T11:54:35.755Z,8616
2023-09-02T11:55:36.709Z,8568
2023-09-02T11:56:37.888Z,8572
2023-09-02T11:57:38.503Z,8500
2023-09-02T11:58:39.236Z,8484
2023-09-02T11:59:41.589Z,8452
2023-09-02T12:00:40.304Z,8396
2023-09-02T12:01:41.613Z,8392
2023-09-02T12:02:41.878Z,8396
2023-09-02T12:03:42.610Z,8300
2023-09-02T12:04:42.655Z,8448
2023-09-02T12:05:43.811Z,8248
2023-09-02T12:06:44.577Z,8364
2023-09-02T12:07:45.832Z,8412
2023-09-02T12:08:45.405Z,8284
2023-09-02T12:09:46.365Z,8320
2023-09-02T12:10:47.349Z,8216
2023-09-02T12:11:47.462Z,8144
2023-09-02T12:12:48.582Z,8096
2023-09-02T12:13:48.548Z,8020
2023-09-02T12:14:49.274Z,8052
2023-09-02T12:15:49.828Z,7972
2023-09-02T12:16:51.255Z,7876
2023-09-02T12:17:51.957Z,7756
2023-09-02T12:18:51.359Z,7824
2023-09-02T12:19:52.476Z,7936
2023-09-02T12:20:52.222Z,7976
2023-09-02T12:21:53.192Z,7932
2023-09-02T12:22:53.436Z,8108
2023-09-02T12:23:53.170Z,6824
2023-09-02T12:24:54.115Z,8052
2023-09-02T12:25:54.428Z,8140
2023-09-02T12:26:55.356Z,8028
2023-09-02T12:27:55.807Z,8036
2023-09-02T12:29:00.984Z,8064
2023-09-02T12:29:56.953Z,7988
2023-09-02T12:30:58.637Z,7840
2023-09-02T12:31:58.424Z,7788
2023-09-02T12:32:59.173Z,7796
2023-09-02T12:33:59.454Z,7864
2023-09-02T12:34:59.792Z,7820
2023-09-02T12:36:00.538Z,7736
2023-09-02T12:37:01.087Z,7636
2023-09-02T12:38:02.175Z,7724
2023-09-02T12:39:02.307Z,7732
2023-09-02T12:40:03.046Z,6800
2023-09-02T12:41:03.961Z,7656
2023-09-02T12:42:04.685Z,6220
2023-09-02T12:43:05.426Z,5544
2023-09-02T12:44:05.987Z,1224
2023-09-02T12:45:09.388Z,3844
2023-09-02T12:46:07.524Z,996
2023-09-02T12:47:07.694Z,932
2023-09-02T12:48:08.066Z,2072
2023-09-02T12:49:09.080Z,8388
2023-09-02T12:50:10.073Z,8308
2023-09-02T12:51:10.461Z,8676
2023-09-02T12:52:11.196Z,8728
2023-09-02T12:53:12.415Z,8656
2023-09-02T12:54:12.696Z,8240
2023-09-02T12:55:13.467Z,8432
2023-09-02T12:56:16.581Z,8848
2023-09-02T12:57:15.312Z,8956
2023-09-02T12:58:15.976Z,8952
2023-09-02T12:59:16.712Z,8784
2023-09-02T13:00:17.030Z,8836
2023-09-02T13:01:17.736Z,8620
2023-09-02T13:02:18.980Z,8564
2023-09-02T13:03:19.276Z,8708
2023-09-02T13:04:19.621Z,8344
2023-09-02T13:05:20.369Z,8368
2023-09-02T13:06:21.244Z,8368
2023-09-02T13:07:21.584Z,8460
2023-09-02T13:08:25.254Z,8520
2023-09-02T13:09:22.951Z,8296
2023-09-02T13:10:23.309Z,8356
2023-09-02T13:11:23.623Z,8136
2023-09-02T13:12:24.247Z,7984
2023-09-02T13:13:25.595Z,8032
2023-09-02T13:14:26.152Z,8136
2023-09-02T13:15:26.851Z,8036
2023-09-02T13:16:26.805Z,7988
2023-09-02T13:17:27.811Z,7624
2023-09-02T13:19:28.197Z,7428
2023-09-02T13:20:29.239Z,7640
2023-09-02T13:21:28.987Z,7804
2023-09-02T13:22:29.751Z,7592
2023-09-02T13:23:31.252Z,7512
2023-09-02T13:24:30.766Z,7288
2023-09-02T13:25:31.480Z,7116
2023-09-02T13:26:31.988Z,6992
2023-09-02T13:27:32.298Z,6864
2023-09-02T13:28:33.626Z,6856
2023-09-02T13:29:33.966Z,6368
2023-09-02T13:30:34.918Z,1924
2023-09-02T13:31:35.753Z,5260
2023-09-02T13:32:37.604Z,2928
2023-09-02T13:33:36.047Z,3076
2023-09-02T13:34:36.398Z,3332
2023-09-02T13:35:37.191Z,1132
2023-09-02T13:36:38.129Z,1048
2023-09-02T13:37:38.691Z,1168
2023-09-02T13:38:42.398Z,3764
2023-09-02T13:39:39.923Z,5948
2023-09-02T13:40:40.879Z,5832
2023-09-02T13:41:41.766Z,5724
2023-09-02T13:42:42.728Z,5688
2023-09-02T13:43:43.681Z,4464
2023-09-02T13:44:45.387Z,3040
2023-09-02T13:45:45.104Z,4200
2023-09-02T13:46:44.840Z,5636
2023-09-02T13:47:45.276Z,5540
2023-09-02T13:48:45.877Z,5448
2023-09-02T13:49:46.790Z,5276
2023-09-02T13:50:46.737Z,5232
2023-09-02T13:51:47.758Z,5200
2023-09-02T13:52:48.540Z,5184
2023-09-02T13:53:49.752Z,5104
2023-09-02T13:54:50.661Z,4984
2023-09-02T13:55:51.404Z,5072
2023-09-02T13:56:51.736Z,5116
2023-09-02T13:57:52.458Z,5108
2023-09-02T13:58:52.846Z,5056
2023-09-02T13:59:53.466Z,4924
2023-09-02T14:00:54.637Z,4772
2023-09-02T14:01:54.465Z,4716
2023-09-02T14:02:55.221Z,4628
2023-09-02T14:03:55.891Z,4532
2023-09-02T14:04:55.829Z,4436
2023-09-02T14:05:56.566Z,4348
2023-09-02T14:06:57.307Z,4296
2023-09-02T14:07:58.038Z,4256
2023-09-02T14:08:59.183Z,4220
2023-09-02T14:09:58.885Z,4232
2023-09-02T14:10:59.607Z,4200
2023-09-02T14:12:00.324Z,4056
2023-09-02T14:13:01.274Z,4008
2023-09-02T14:14:02.325Z,3940
2023-09-02T14:15:03.057Z,3856
2023-09-02T14:16:04.021Z,3816
2023-09-02T14:17:04.462Z,3812
2023-09-02T14:18:05.386Z,3636
2023-09-02T14:19:06.743Z,3700
2023-09-02T14:20:06.789Z,3860
2023-09-02T14:21:08.001Z,3744
2023-09-02T14:22:08.929Z,3668
2023-09-02T14:23:09.285Z,3672
2023-09-02T14:24:10.503Z,3552
2023-09-02T14:25:11.034Z,2308
2023-09-02T14:26:11.575Z,3056
2023-09-02T14:27:11.974Z,3556
2023-09-02T14:28:12.900Z,1704
2023-09-02T14:29:13.190Z,724
2023-09-02T14:30:13.698Z,720
2023-09-02T14:31:14.310Z,772
2023-09-02T14:32:14.930Z,844
2023-09-02T14:33:15.698Z,916
2023-09-02T14:34:15.946Z,2040
2023-09-02T14:35:16.779Z,3316
2023-09-02T14:36:17.471Z,3356
2023-09-02T14:37:18.032Z,3272
2023-09-02T14:38:21.075Z,3228